Terminal Aerodrome Forecast
Issued by NWS

Home | Current Version | Previous Version | Text Only | Print | Product List | Glossary Off
Versions: 1 2 3 4 5 6 7 8 9 10 11 12 13 14 15 16 17 18 19 20 21 22 23 24 25 26 27 28

214
FTUS43 KABR 101945 AAA
TAFATY
TAF AMD
KATY 101945Z 1020/1118 10009KT P6SM BKN018 OVC045
     FM102100 09008KT P6SM SCT030 BKN070
      TEMPO 1023/1103 5SM -SN BKN030 OVC070
     FM110600 VRB06KT 3SM BR FEW030
      TEMPO 1108/1112 1SM BR SCT007
     FM111200 16007KT 3SM BR BKN007=

USA.gov is the U.S. government's official web portal to all federal, state and local government web resources and services.